Main page
METAR-TAF:

METAR-TAF

Airports :

Almería Airport

Almería, Spain

latitude: 36-51N, longitude: 002-23W, elevation: 15 m

Current weather observation

The report was made 28 minutes ago, at 17:00 UTC
Wind 21 kt from the East
Temperature 28°C
Humidity 48%
Pressure 1016 hPa
Visibility 10 km or more
no clouds below 1500 m and no cumulonimbus

METAR: LEAM 241700Z 08021KT CAVOK 28/16 Q1016

Time: 19:28 (17:28 UTC)

Forecast

The report was made 6 hours and 28 minutes ago, at 11:00 UTC
Forecast valid from 24 at 12 UTC to 25 at 12 UTC
Wind 15 kt from the East
Visibility 10 km or more
no clouds below 1500 m and no cumulonimbus
Probability 40% :
Temporary
from 24 at 12 UTC to 24 at 20 UTC
Wind 18 kt from the East with gusts up to 29 kt
Becoming
from 24 at 23 UTC to 25 at 01 UTC
Wind 9 kt from the North
Becoming
from 25 at 06 UTC to 25 at 08 UTC
Wind 15 kt from the East/Northeast

TAF: LEAM 241100Z 2412/2512 08015KT CAVOK TX31/2415Z TN21/2505Z PROB40 TEMPO 2412/2420 08018G29KT BECMG 2423/2501 35009KT BECMG 2506/2508 07015KT

Weather observations and forecasts of more than 4000 airports (METAR and TAF reports).

The available stations are represented by yellow and red dots on the map.

Hover mouse over dot to see the name of the station.

Then click to see weather observations and forecasts.

To change the map : click on the green buttons with a black cross to zoom in, on the green button with a dash to zoom out, or on the green arrows for adjacent maps.


METAR-TAF: